Airfield :
LOGIN :

Register | Disclaimer

   EN    FR    IT 

 










Legend :    VFR   Marginal VFR   IFR   Intensive IFR   Very Intensive IFR
Visi :
Ceiling :
>= 8 km
>= 3000ft
5 to 8 km
1000 to 3000 ft
1500m to 5 km
500 to 1000 ft
800 to 1500m
200 to 500 ft
< 800m
< 200 ft
Symbols :   Thunderstorms  Fog  Heavy snow  Heavy precipitations  Wind > 20 kt
SIGMETs :     Misc.  Thunderstorms  Icing  Turbulence  Mountain Waves  Volcanic Ashes






- Airport Elevation : 782 ft
- IATA code : BGY


LIME - Orio al Serio International - Bergamo

CURRENT METAR :
  • 170220Z 36005KT CAVOK 18/13 Q1014 NOSIG

EXPIRED METARs :
  • 170150Z 34003KT 300V030 CAVOK 18/14 Q1014 NOSIG
  • 170120Z 34004KT 300V020 CAVOK 17/14 Q1014 NOSIG
  • 170050Z VRB02KT CAVOK 18/14 Q1014 NOSIG
  • 170020Z 36004KT CAVOK 18/14 Q1014 NOSIG
  • 162350Z 33006KT CAVOK 19/14 Q1014 NOSIG
  • 162320Z 34005KT 300V030 CAVOK 19/14 Q1014 NOSIG
  • 162250Z VRB04KT CAVOK 19/14 Q1014 NOSIG
  • 162220Z 36005KT CAVOK 19/14 Q1014 NOSIG
  • 162150Z 01004KT CAVOK 19/15 Q1013 NOSIG

TAF TAF LIME
Valid from the 17 at 00:00 until the 18 at 00:00 UTC


162300Z 1700/1724 VRB04KT 9999 FEW040



MET'MAP, your aeronautical weather chart ! - Copyright ORBIFLY December 2007 - Disclaimer

ORBIFLY MET'MAP TEAM :

Programming & Development : Alexandra Zaïnal
Original concept : Baudouin d'Aumeries
Technical & hardware support : Manuel Goepfert
Assistance : Marc-Olivier Méhu




SOURCES & CREDITS :

   NOAA